createdAt,value
2023-01-04T00:01:15.379Z,93.53
2023-01-04T00:03:43.546Z,121.73
2023-01-04T00:06:14.495Z,129.47
2023-01-04T00:08:41.909Z,114.07
2023-01-04T00:11:21.679Z,100.33
2023-01-04T00:13:50.725Z,95.90
2023-01-04T00:16:20.629Z,86.13
2023-01-04T00:18:48.176Z,85.17
2023-01-04T00:21:18.194Z,82.33
2023-01-04T00:23:47.704Z,76.53
2023-01-04T00:26:17.825Z,87.27
2023-01-04T00:28:51.690Z,99.63
2023-01-04T00:31:21.879Z,98.13
2023-01-04T00:33:49.256Z,71.73
2023-01-04T00:36:16.515Z,66.77
2023-01-04T00:38:43.777Z,71.93
2023-01-04T00:41:34.370Z,77.57
2023-01-04T00:44:03.601Z,79.20
2023-01-04T00:46:32.388Z,80.77
2023-01-04T00:49:00.930Z,90.23
2023-01-04T00:51:30.595Z,81.87
2023-01-04T00:54:00.212Z,79.47
2023-01-04T00:56:29.891Z,106.93
2023-01-04T00:58:58.679Z,89.03
2023-01-04T01:01:27.847Z,88.97
2023-01-04T01:04:01.394Z,88.83
2023-01-04T01:06:30.553Z,79.83
2023-01-04T01:08:58.094Z,76.53
2023-01-04T01:11:26.027Z,105.37
2023-01-04T01:13:53.566Z,101.10
2023-01-04T01:16:51.899Z,112.10
2023-01-04T01:19:10.990Z,78.17
2023-01-04T01:21:38.784Z,100.27
2023-01-04T01:24:06.585Z,88.83
2023-01-04T01:26:33.941Z,85.40
2023-01-04T01:29:01.502Z,82.97
2023-01-04T01:31:29.717Z,75.67
2023-01-04T01:33:58.150Z,80.83
2023-01-04T01:36:26.793Z,69.00
2023-01-04T01:38:55.003Z,82.80
2023-01-04T01:41:34.264Z,74.70
2023-01-04T01:44:07.128Z,65.43
2023-01-04T01:46:50.873Z,72.67
2023-01-04T01:49:32.909Z,80.10
2023-01-04T01:52:04.211Z,81.63
2023-01-04T01:54:39.677Z,74.13
2023-01-04T01:57:09.434Z,76.87
2023-01-04T01:59:40.749Z,76.17
2023-01-04T02:02:12.360Z,64.00
2023-01-04T02:04:43.616Z,66.73
2023-01-04T02:07:13.452Z,62.47
2023-01-04T02:09:41.785Z,59.30
2023-01-04T02:12:12.996Z,62.23
2023-01-04T02:14:42.659Z,64.80
2023-01-04T02:17:21.244Z,70.70
2023-01-04T02:20:11.001Z,68.43
2023-01-04T02:22:50.333Z,68.03
2023-01-04T02:25:32.362Z,119.27
2023-01-04T02:28:33.301Z,129.70
2023-01-04T02:31:15.686Z,115.80
2023-01-04T02:33:58.689Z,84.17
2023-01-04T02:36:46.799Z,118.00
2023-01-04T02:39:39.748Z,139.50
2023-01-04T02:42:59.985Z,133.43
2023-01-04T02:45:37.115Z,88.10
2023-01-04T02:48:26.993Z,74.80
2023-01-04T02:50:58.153Z,68.33
2023-01-04T02:53:39.027Z,63.07
2023-01-04T02:56:35.835Z,59.10
2023-01-04T02:59:15.604Z,56.53
2023-01-04T03:02:16.713Z,55.60
2023-01-04T03:05:53.627Z,65.93
2023-01-04T03:08:32.553Z,67.83
2023-01-04T03:11:05.213Z,64.07
2023-01-04T03:13:40.640Z,70.70
2023-01-04T03:16:12.125Z,65.17
2023-01-04T03:18:44.764Z,57.73
2023-01-04T03:21:14.779Z,55.20
2023-01-04T03:24:03.766Z,53.30
2023-01-04T03:26:52.628Z,53.97
2023-01-04T03:29:50.975Z,54.80
2023-01-04T03:32:45.755Z,57.40
2023-01-04T03:35:28.382Z,55.57
2023-01-04T03:38:34.702Z,47.47
2023-01-04T03:41:25.950Z,50.47
2023-01-04T03:44:36.174Z,47.47
2023-01-04T03:47:32.332Z,51.30
2023-01-04T03:50:15.400Z,50.90
2023-01-04T03:52:45.041Z,53.03
2023-01-04T03:55:13.513Z,55.40
2023-01-04T03:57:41.804Z,57.77
2023-01-04T04:00:18.628Z,57.27
2023-01-04T04:02:48.102Z,50.33
2023-01-04T04:05:43.656Z,49.97
2023-01-04T04:08:29.162Z,57.10
2023-01-04T04:11:23.857Z,52.80
2023-01-04T04:13:51.484Z,52.17
2023-01-04T04:16:18.767Z,48.80
2023-01-04T04:18:46.410Z,55.37
2023-01-04T04:21:13.646Z,55.97
2023-01-04T04:23:41.424Z,58.90
2023-01-04T04:26:08.623Z,67.07
2023-01-04T04:28:36.169Z,61.83
2023-01-04T04:31:03.714Z,64.03
2023-01-04T04:33:30.845Z,56.67
2023-01-04T04:35:58.617Z,52.93
2023-01-04T04:38:26.064Z,52.10
2023-01-04T04:41:11.858Z,52.33
2023-01-04T04:43:39.133Z,46.93
2023-01-04T04:46:06.717Z,50.87
2023-01-04T04:48:34.083Z,45.40
2023-01-04T04:51:01.314Z,47.37
2023-01-04T04:53:28.547Z,43.33
2023-01-04T04:55:55.933Z,45.00
2023-01-04T04:58:23.125Z,42.87
2023-01-04T05:00:50.447Z,49.23
2023-01-04T05:03:17.753Z,46.53
2023-01-04T05:05:44.970Z,47.73
2023-01-04T05:08:12.195Z,47.00
2023-01-04T05:10:39.637Z,50.43
2023-01-04T05:13:10.883Z,53.80
2023-01-04T05:15:40.868Z,43.93
2023-01-04T05:18:09.592Z,89.97
2023-01-04T05:20:38.236Z,45.20
2023-01-04T05:23:06.122Z,45.63
2023-01-04T05:25:34.090Z,48.07
2023-01-04T05:28:01.777Z,46.60
2023-01-04T05:30:47.869Z,45.77
2023-01-04T05:33:16.128Z,45.17
2023-01-04T05:35:45.720Z,52.10
2023-01-04T05:38:13.516Z,49.60
2023-01-04T05:40:40.976Z,51.97
2023-01-04T05:43:08.304Z,49.10
2023-01-04T05:45:36.150Z,51.87
2023-01-04T05:48:03.567Z,46.77
2023-01-04T05:50:30.868Z,47.47
2023-01-04T05:52:58.112Z,43.57
2023-01-04T05:55:25.565Z,46.57
2023-01-04T05:57:53.739Z,45.40
2023-01-04T06:00:20.912Z,48.77
2023-01-04T06:02:48.364Z,46.00
2023-01-04T06:05:16.025Z,48.13
2023-01-04T06:07:43.217Z,205.87
2023-01-04T06:10:12.711Z,160.70
2023-01-04T06:12:40.523Z,260.70
2023-01-04T06:15:08.953Z,372.87
2023-01-04T06:17:36.996Z,371.97
2023-01-04T06:20:07.220Z,234.63
2023-01-04T06:22:34.672Z,141.40
2023-01-04T06:25:01.930Z,275.93
2023-01-04T06:27:29.178Z,186.03
2023-01-04T06:29:56.433Z,91.73
2023-01-04T06:32:23.863Z,69.20
2023-01-04T06:34:51.095Z,58.23
2023-01-04T06:37:18.331Z,53.90
2023-01-04T06:39:45.503Z,70.13
2023-01-04T06:42:32.702Z,180.47
2023-01-04T06:44:59.969Z,220.63
2023-01-04T06:47:27.236Z,193.50
2023-01-04T06:49:59.804Z,137.50
2023-01-04T06:52:27.456Z,315.87
2023-01-04T06:54:55.357Z,526.77
2023-01-04T06:57:22.641Z,488.20
2023-01-04T06:59:49.918Z,446.67
2023-01-04T07:02:17.462Z,470.57
2023-01-04T07:04:44.925Z,442.40
2023-01-04T07:07:12.349Z,170.03
2023-01-04T07:09:39.601Z,159.60
2023-01-04T07:12:07.418Z,251.33
2023-01-04T07:14:34.781Z,252.60
2023-01-04T07:17:01.967Z,148.13
2023-01-04T07:19:29.167Z,99.57
2023-01-04T07:21:59.091Z,88.47
2023-01-04T07:24:30.396Z,59.23
2023-01-04T07:27:00.275Z,54.30
2023-01-04T07:29:27.941Z,48.07
2023-01-04T07:31:55.894Z,45.77
2023-01-04T07:34:25.569Z,45.90
2023-01-04T07:36:52.747Z,57.13
2023-01-04T07:39:20.798Z,48.43
2023-01-04T07:41:49.033Z,46.30
2023-01-04T07:44:18.467Z,48.87
2023-01-04T07:46:46.169Z,48.90
2023-01-04T07:49:17.774Z,53.23
2023-01-04T07:51:49.831Z,54.13
2023-01-04T07:54:18.263Z,44.37
2023-01-04T07:56:47.604Z,46.37
2023-01-04T07:59:16.669Z,54.47
2023-01-04T08:01:44.462Z,61.57
2023-01-04T08:04:13.525Z,60.77
2023-01-04T08:06:43.077Z,55.40
2023-01-04T08:09:12.029Z,46.40
2023-01-04T08:11:39.417Z,43.63
2023-01-04T08:14:06.572Z,47.60
2023-01-04T08:16:36.991Z,42.20
2023-01-04T08:19:12.230Z,42.13
2023-01-04T08:21:40.263Z,47.43
2023-01-04T08:24:07.988Z,51.53
2023-01-04T08:26:35.160Z,51.13
2023-01-04T08:29:02.408Z,47.83
2023-01-04T08:31:31.685Z,46.27
2023-01-04T08:34:01.479Z,47.57
2023-01-04T08:36:33.754Z,55.83
2023-01-04T08:39:05.071Z,54.77
2023-01-04T08:42:04.298Z,54.17
2023-01-04T08:44:38.322Z,42.00
2023-01-04T08:47:05.711Z,40.53
2023-01-04T08:49:33.112Z,37.43
2023-01-04T08:52:00.387Z,35.93
2023-01-04T08:54:27.551Z,39.47
2023-01-04T08:56:54.760Z,37.57
2023-01-04T08:59:22.261Z,38.73
2023-01-04T09:01:49.510Z,36.70
2023-01-04T09:04:16.950Z,41.03
2023-01-04T09:06:44.251Z,36.23
2023-01-04T09:09:11.866Z,40.00
2023-01-04T09:11:39.492Z,40.87
2023-01-04T09:14:10.839Z,40.83
2023-01-04T09:16:38.872Z,47.53
2023-01-04T09:19:07.028Z,44.23
2023-01-04T09:21:34.767Z,37.53
2023-01-04T09:24:02.132Z,33.07
2023-01-04T09:26:29.376Z,52.37
2023-01-04T09:28:57.548Z,33.83
2023-01-04T09:31:27.667Z,39.63
2023-01-04T09:36:43.559Z,37.33
2023-01-04T09:39:18.844Z,34.50
2023-01-04T09:41:58.917Z,27.93
2023-01-04T09:48:05.357Z,24.03
2023-01-04T09:50:37.585Z,23.20
2023-01-04T09:53:29.045Z,24.70
2023-01-04T09:56:02.597Z,19.37
2023-01-04T09:58:40.378Z,24.50
2023-01-04T10:01:11.717Z,24.07
2023-01-04T10:03:41.669Z,25.53
2023-01-04T10:06:17.803Z,33.30
2023-01-04T10:08:45.411Z,37.23
2023-01-04T10:11:12.501Z,27.10
2023-01-04T10:14:01.083Z,26.23
2023-01-04T10:23:14.003Z,17.57
2023-01-04T10:26:09.407Z,21.73
2023-01-04T10:28:45.525Z,20.07
2023-01-04T10:31:39.878Z,20.43
2023-01-04T10:34:06.847Z,25.53
2023-01-04T10:36:35.027Z,25.47
2023-01-04T10:39:05.767Z,24.83
2023-01-04T10:41:44.141Z,27.23
2023-01-04T10:44:48.356Z,28.30
2023-01-04T10:47:29.558Z,21.40
2023-01-04T10:50:05.359Z,18.03
2023-01-04T10:52:45.398Z,25.57
2023-01-04T10:55:32.164Z,18.93
2023-01-04T10:58:31.683Z,23.23
2023-01-04T11:01:10.709Z,33.43
2023-01-04T11:04:13.754Z,20.00
2023-01-04T11:07:12.947Z,24.60
2023-01-04T11:10:01.923Z,21.27
2023-01-04T11:12:29.372Z,19.90
2023-01-04T11:14:56.772Z,24.13
2023-01-04T11:17:25.786Z,24.53
2023-01-04T11:19:54.801Z,28.70
2023-01-04T11:22:42.400Z,25.33
2023-01-04T11:25:36.203Z,19.70
2023-01-04T11:28:16.353Z,20.50
2023-01-04T11:30:55.243Z,47.60
2023-01-04T11:33:24.049Z,16.80
2023-01-04T11:35:57.277Z,15.97
2023-01-04T11:38:29.978Z,21.73
2023-01-04T11:40:58.939Z,16.80
2023-01-04T11:43:28.732Z,17.60
2023-01-04T11:46:21.085Z,19.57
2023-01-04T11:48:49.045Z,18.40
2023-01-04T11:51:19.800Z,17.00
2023-01-04T11:53:57.014Z,17.17
2023-01-04T11:56:26.126Z,11.43
2023-01-04T11:59:24.796Z,10.13
2023-01-04T12:05:29.714Z,13.77
2023-01-04T12:07:58.888Z,13.63
2023-01-04T12:10:28.474Z,14.33
2023-01-04T12:12:57.227Z,12.07
2023-01-04T12:15:48.540Z,15.50
2023-01-04T12:18:29.351Z,9.70
2023-01-04T12:20:57.859Z,11.50
2023-01-04T12:23:25.203Z,14.50
2023-01-04T12:25:53.829Z,13.83
2023-01-04T12:28:41.280Z,9.30
2023-01-04T12:31:21.490Z,11.43
2023-01-04T12:34:00.951Z,10.27
2023-01-04T12:36:40.323Z,7.13
2023-01-04T12:39:15.961Z,9.40
2023-01-04T12:42:01.404Z,9.57
2023-01-04T12:44:40.892Z,8.63
2023-01-04T12:47:38.869Z,16.80
2023-01-04T12:50:09.520Z,9.83
2023-01-04T12:55:31.732Z,9.03
2023-01-04T12:58:49.654Z,15.10
2023-01-04T13:01:29.254Z,17.90
2023-01-04T13:04:06.313Z,8.90
2023-01-04T13:06:42.984Z,9.33
2023-01-04T13:09:24.944Z,9.83
2023-01-04T13:12:27.980Z,25.87
2023-01-04T13:15:03.400Z,25.93
2023-01-04T13:17:37.264Z,14.90
2023-01-04T13:20:20.001Z,12.63
2023-01-04T13:22:54.600Z,9.97
2023-01-04T13:25:23.771Z,7.37
2023-01-04T13:28:05.610Z,7.33
2023-01-04T13:30:39.638Z,5.73
2023-01-04T13:33:26.914Z,7.17
2023-01-04T13:36:12.429Z,5.17
2023-01-04T13:38:40.889Z,4.80
2023-01-04T13:41:23.158Z,7.63
2023-01-04T13:44:11.694Z,5.93
2023-01-04T13:46:43.946Z,5.97
2023-01-04T13:49:15.687Z,8.17
2023-01-04T13:51:42.907Z,11.90
2023-01-04T13:54:22.796Z,8.67
2023-01-04T13:56:55.499Z,14.27
2023-01-04T13:59:23.544Z,121.77
2023-01-04T14:01:52.082Z,318.20
2023-01-04T14:04:29.072Z,597.80
2023-01-04T14:06:59.585Z,164.10
2023-01-04T14:09:31.222Z,179.07
2023-01-04T14:12:13.859Z,221.40
2023-01-04T14:14:41.296Z,246.83
2023-01-04T14:17:19.965Z,47.27
2023-01-04T14:20:06.945Z,9.20
2023-01-04T14:22:41.426Z,8.60
2023-01-04T14:25:49.682Z,14.63
2023-01-04T14:28:20.351Z,43.70
2023-01-04T14:30:51.994Z,288.90
2023-01-04T14:33:23.423Z,266.27
2023-01-04T14:36:14.987Z,14.70
2023-01-04T14:38:47.273Z,26.27
2023-01-04T14:41:35.974Z,25.47
2023-01-04T14:44:21.810Z,6.73
2023-01-04T14:46:54.196Z,5.57
2023-01-04T14:49:22.532Z,16.93
2023-01-04T14:51:57.506Z,30.20
2023-01-04T14:54:27.340Z,6.13
2023-01-04T14:56:56.318Z,15.07
2023-01-04T14:59:24.783Z,8.13
2023-01-04T15:01:54.320Z,36.23
2023-01-04T15:04:22.068Z,37.13
2023-01-04T15:07:00.472Z,25.10
2023-01-04T15:09:29.302Z,14.50
2023-01-04T15:11:56.635Z,11.43
2023-01-04T15:14:24.470Z,14.37
2023-01-04T15:16:51.824Z,11.97
2023-01-04T15:19:19.067Z,9.20
2023-01-04T15:21:46.376Z,6.73
2023-01-04T15:24:13.618Z,18.70
2023-01-04T15:26:41.094Z,67.67
2023-01-04T15:29:08.891Z,8.40
2023-01-04T15:31:39.856Z,6.27
2023-01-04T15:34:09.308Z,15.37
2023-01-04T15:36:39.130Z,5.97
2023-01-04T15:39:07.454Z,8.33
2023-01-04T15:41:58.188Z,4.20
2023-01-04T15:44:25.499Z,6.67
2023-01-04T15:46:54.107Z,5.97
2023-01-04T15:49:21.447Z,4.87
2023-01-04T15:51:49.141Z,7.80
2023-01-04T15:54:17.494Z,10.00
2023-01-04T15:56:44.661Z,15.20
2023-01-04T15:59:15.381Z,14.97
2023-01-04T16:01:43.511Z,35.87
2023-01-04T16:04:13.883Z,140.60
2023-01-04T16:06:41.913Z,65.37
2023-01-04T16:09:09.135Z,119.43
2023-01-04T16:11:36.619Z,94.73
2023-01-04T16:14:04.070Z,85.43
2023-01-04T16:16:33.019Z,93.43
2023-01-04T16:19:00.461Z,47.23
2023-01-04T16:21:28.764Z,22.83
2023-01-04T16:24:05.078Z,33.67
2023-01-04T16:26:34.400Z,23.10
2023-01-04T16:29:03.137Z,14.63
2023-01-04T16:31:35.496Z,21.77
2023-01-04T16:34:03.760Z,15.30
2023-01-04T16:36:31.188Z,21.77
2023-01-04T16:38:58.962Z,21.17
2023-01-04T16:41:26.305Z,24.43
2023-01-04T16:43:56.157Z,14.87
2023-01-04T16:46:29.329Z,48.87
2023-01-04T16:49:06.448Z,40.00
2023-01-04T16:51:35.539Z,86.80
2023-01-04T16:54:05.867Z,50.60
2023-01-04T16:56:33.795Z,27.70
2023-01-04T16:59:02.635Z,16.07
2023-01-04T17:01:32.553Z,27.83
2023-01-04T17:04:02.626Z,27.23
2023-01-04T17:06:32.383Z,14.90
2023-01-04T17:09:01.251Z,19.47
2023-01-04T17:14:18.577Z,45.20
2023-01-04T17:16:45.998Z,18.20
2023-01-04T17:19:13.261Z,11.43
2023-01-04T17:21:40.963Z,12.93
2023-01-04T17:24:08.718Z,6.60
2023-01-04T17:26:36.045Z,7.57
2023-01-04T17:29:03.957Z,3.97
2023-01-04T17:31:40.341Z,7.53
2023-01-04T17:34:10.638Z,3.53
2023-01-04T17:36:38.254Z,4.93
2023-01-04T17:39:06.357Z,4.03
2023-01-04T17:41:33.841Z,3.03
2023-01-04T17:44:04.237Z,7.63
2023-01-04T17:46:34.363Z,8.33
2023-01-04T17:49:25.528Z,10.00
2023-01-04T17:51:55.607Z,6.70
2023-01-04T17:54:24.157Z,5.20
2023-01-04T17:56:51.707Z,9.00
2023-01-04T17:59:18.952Z,5.13
2023-01-04T18:01:46.537Z,7.50
2023-01-04T18:04:14.347Z,3.03
2023-01-04T18:06:41.912Z,4.33
2023-01-04T18:09:09.446Z,4.13
2023-01-04T18:11:37.792Z,4.37
2023-01-04T18:14:09.723Z,3.67
2023-01-04T18:16:57.142Z,4.80
2023-01-04T18:19:26.907Z,3.60
2023-01-04T18:21:54.430Z,3.10
2023-01-04T18:24:38.590Z,4.73
2023-01-04T18:27:26.403Z,3.30
2023-01-04T18:29:55.792Z,4.63
2023-01-04T18:32:25.082Z,3.60
2023-01-04T18:34:52.383Z,3.07
2023-01-04T18:37:19.847Z,2.97
2023-01-04T18:39:48.292Z,3.37
2023-01-04T18:42:15.712Z,2.93
2023-01-04T18:44:48.267Z,3.70
2023-01-04T18:47:18.588Z,3.13
2023-01-04T18:49:46.038Z,3.40
2023-01-04T18:52:13.532Z,2.47
2023-01-04T18:54:40.845Z,2.40
2023-01-04T18:57:08.321Z,4.30
2023-01-04T18:59:35.655Z,4.20
2023-01-04T19:02:03.736Z,3.80
2023-01-04T19:04:33.165Z,3.57
2023-01-04T19:07:01.186Z,2.93
2023-01-04T19:09:28.597Z,2.97
2023-01-04T19:11:55.787Z,3.03
2023-01-04T19:14:23.194Z,2.77
2023-01-04T19:16:50.442Z,4.83
2023-01-04T19:19:17.726Z,2.57
2023-01-04T19:21:45.156Z,2.47
2023-01-04T19:24:12.673Z,3.17
2023-01-04T19:26:40.140Z,4.03
2023-01-04T19:29:10.598Z,2.90
2023-01-04T19:31:38.112Z,4.43
2023-01-04T19:34:05.711Z,2.17
2023-01-04T19:36:34.964Z,3.07
2023-01-04T19:39:08.301Z,3.17
2023-01-04T19:41:38.357Z,3.00
2023-01-04T19:44:09.065Z,2.00
2023-01-04T19:46:38.728Z,2.40
2023-01-04T19:49:12.404Z,2.70
2023-01-04T19:51:44.655Z,2.87
2023-01-04T19:54:12.143Z,3.77
2023-01-04T19:56:40.030Z,2.67
2023-01-04T19:59:07.348Z,2.57
2023-01-04T20:01:34.715Z,2.13
2023-01-04T20:04:02.143Z,3.60
2023-01-04T20:06:29.806Z,1.87
2023-01-04T20:08:56.965Z,3.40
2023-01-04T20:11:24.194Z,2.10
2023-01-04T20:13:51.469Z,2.50
2023-01-04T20:16:19.345Z,2.13
2023-01-04T20:18:46.627Z,2.70
2023-01-04T20:21:14.785Z,1.80
2023-01-04T20:23:45.683Z,2.47
2023-01-04T20:26:18.199Z,2.73
2023-01-04T20:28:46.339Z,2.73
2023-01-04T20:31:17.475Z,2.60
2023-01-04T20:33:45.512Z,1.80
2023-01-04T20:36:16.952Z,2.03
2023-01-04T20:38:45.770Z,1.13
2023-01-04T20:41:16.718Z,1.33
2023-01-04T20:43:45.768Z,1.20
2023-01-04T20:46:15.599Z,1.37
2023-01-04T20:48:43.014Z,0.90
2023-01-04T20:51:16.141Z,2.33
2023-01-04T20:53:43.525Z,1.70
2023-01-04T20:56:16.072Z,1.03
2023-01-04T20:58:45.669Z,0.83
2023-01-04T21:01:14.005Z,1.33
2023-01-04T21:03:42.095Z,1.20
2023-01-04T21:06:12.639Z,2.03
2023-01-04T21:08:41.537Z,1.17
2023-01-04T21:11:09.857Z,1.63
2023-01-04T21:13:37.305Z,0.77
2023-01-04T21:16:04.981Z,0.73
2023-01-04T21:18:33.321Z,0.97
2023-01-04T21:21:08.402Z,0.77
2023-01-04T21:23:36.114Z,0.60
2023-01-04T21:26:11.687Z,1.33
2023-01-04T21:28:38.995Z,1.63
2023-01-04T21:31:15.429Z,0.93
2023-01-04T21:33:47.208Z,0.93
2023-01-04T21:36:17.643Z,1.63
2023-01-04T21:38:47.884Z,0.80
2023-01-04T21:41:15.879Z,1.10
2023-01-04T21:43:43.988Z,1.30
2023-01-04T21:46:15.714Z,0.83
2023-01-04T21:48:44.573Z,1.93
2023-01-04T21:51:12.488Z,1.30
2023-01-04T21:53:41.361Z,1.63
2023-01-04T21:56:14.344Z,1.83
2023-01-04T21:58:42.237Z,0.83
2023-01-04T22:01:21.423Z,0.80
2023-01-04T22:03:48.805Z,1.10
2023-01-04T22:06:16.110Z,0.70
2023-01-04T22:08:44.354Z,0.83
2023-01-04T22:11:12.644Z,0.73
2023-01-04T22:13:39.862Z,0.87
2023-01-04T22:16:08.940Z,0.97
2023-01-04T22:18:36.670Z,1.23
2023-01-04T22:21:04.905Z,0.90
2023-01-04T22:23:32.940Z,0.93
2023-01-04T22:26:00.695Z,0.80
2023-01-04T22:28:34.690Z,1.30
2023-01-04T22:31:06.170Z,1.93
2023-01-04T22:33:35.402Z,1.23
2023-01-04T22:36:17.387Z,1.47
2023-01-04T22:38:49.068Z,1.60
2023-01-04T22:41:19.259Z,1.40
2023-01-04T22:43:47.609Z,1.17
2023-01-04T22:46:20.429Z,1.37
2023-01-04T22:48:47.625Z,2.93
2023-01-04T22:51:17.731Z,1.30
2023-01-04T22:53:45.853Z,1.10
2023-01-04T22:56:19.375Z,1.20
2023-01-04T22:58:52.988Z,1.20
2023-01-04T23:01:22.380Z,1.30
2023-01-04T23:03:52.105Z,0.90
2023-01-04T23:06:19.981Z,0.97
2023-01-04T23:08:47.220Z,1.73
2023-01-04T23:11:18.207Z,2.00
2023-01-04T23:13:46.016Z,1.43
2023-01-04T23:16:15.996Z,1.53
2023-01-04T23:18:44.053Z,1.20
2023-01-04T23:21:12.323Z,1.20
2023-01-04T23:23:41.427Z,1.80
2023-01-04T23:26:17.629Z,0.80
2023-01-04T23:28:47.116Z,1.23
2023-01-04T23:31:17.699Z,1.00
2023-01-04T23:33:45.467Z,0.83
2023-01-04T23:36:16.229Z,1.17
2023-01-04T23:38:45.083Z,0.87
2023-01-04T23:41:12.525Z,1.20
2023-01-04T23:43:40.093Z,1.50
2023-01-04T23:46:18.074Z,1.07
2023-01-04T23:48:45.449Z,1.40
2023-01-04T23:51:13.391Z,1.37
2023-01-04T23:53:40.578Z,1.53
2023-01-04T23:56:16.127Z,1.10
2023-01-04T23:58:43.411Z,2.00
